Latest Weather Observations for Yanakie

IDV60801

Issued at 3:32 pm EDT Saturday 10 December 2016 (issued every 30 minutes, with the page automatically refreshed every 10 minutes)

About weather observations | Map of weather stations | Latest weather observations for VIC | Other Formats
Station Details ID: 085301 Name: YANAKIE Lat: -38.81 Lon: 146.19 Height: 13.3 m
Data from the previous 72 hours. | See also: Recent months at Yanakie
Date/Time
EDT
Temp
°C
App
Temp
°C
Dew
Point
°C
Rel
Hum
%
Delta-T
°C
Wind Press
QNH
hPa
Press
MSL
hPa
Rain since
9am
mm
Dir  Spd
km/h
Gust
km/h
Spd
kts
Gust
kts
10/03:30pm 16.0 11.2 8.7 62 3.7 WSW 24 35 13 19 1022.2 1022.2 0.0
10/03:00pm 16.2 11.2 9.4 64 3.5 WSW 26 32 14 17 1022.5 1022.5 0.0
10/02:30pm 16.8 12.0 9.0 60 4.0 WSW 24 33 13 18 1022.7 1022.7 0.0
10/02:00pm 15.8 10.9 8.3 61 3.8 WSW 24 32 13 17 1023.0 1023.0 0.0
10/01:30pm 15.8 10.9 8.3 61 3.8 W 24 32 13 17 1023.1 1023.1 0.0
10/01:00pm 15.6 11.4 8.4 62 3.6 WSW 20 28 11 15 1023.1 1023.1 0.0
10/12:30pm 15.6 11.5 8.6 63 3.6 W 20 28 11 15 1023.2 1023.2 0.0
10/12:00pm 15.4 11.6 7.7 60 3.8 W 17 22 9 12 1023.2 1023.2 0.0
10/11:30am 14.9 10.6 7.9 63 3.5 W 20 28 11 15 1023.2 1023.2 0.0
10/11:00am 15.6 12.0 8.4 62 3.6 W 17 24 9 13 1023.2 1023.2 0.0
10/10:30am 14.8 10.7 8.5 66 3.2 WSW 20 26 11 14 1023.3 1023.3 0.0
10/10:00am 14.6 10.6 8.3 66 3.1 W 19 24 10 13 1023.3 1023.3 0.0
10/09:30am 14.4 10.9 7.0 61 3.6 W 15 19 8 10 1023.3 1023.3 0.0
10/09:00am 14.4 10.4 6.7 60 3.7 W 17 24 9 13 1023.2 1023.2 0.0
10/08:30am 13.8 10.3 7.3 65 3.2 WNW 15 22 8 12 1023.0 1023.0 0.0
10/08:00am 13.2 10.6 7.6 69 2.7 WNW 11 15 6 8 1022.7 1022.7 0.0
10/07:30am 12.7 9.6 7.4 70 2.6 W 13 17 7 9 1022.3 1022.3 0.0
10/07:00am 12.1 9.0 7.4 73 2.3 WNW 13 17 7 9 1022.0 1022.0 0.0
10/06:30am 11.8 9.1 7.5 75 2.1 W 11 17 6 9 1021.5 1021.5 0.0
10/06:00am 11.6 8.9 7.5 76 2.0 WNW 11 17 6 9 1021.1 1021.1 0.0
10/05:30am 12.0 8.4 6.7 70 2.5 W 15 22 8 12 1020.9 1020.9 0.0
10/05:00am 11.7 8.3 7.8 77 1.9 W 15 17 8 9 1020.7 1020.7 0.0
10/04:30am 12.0 8.2 7.7 75 2.1 W 17 22 9 12 1020.6 1020.6 0.0
10/04:00am 11.9 8.1 7.6 75 2.1 WSW 17 24 9 13 1020.5 1020.5 0.0
10/03:30am 11.5 7.9 8.5 82 1.5 WSW 17 22 9 12 1020.5 1020.5 0.0
10/03:00am 12.1 7.7 6.4 68 2.7 WSW 19 22 10 12 1020.4 1020.4 0.0
10/02:30am 12.0 7.5 6.9 71 2.4 W 20 30 11 16 1020.5 1020.5 0.0
10/02:00am 11.5 8.5 7.6 77 1.9 W 13 17 7 9 1020.6 1020.6 0.0
10/01:30am 11.6 7.6 8.1 79 1.7 W 19 28 10 15 1020.8 1020.8 0.0
10/01:00am 12.1 7.7 7.2 72 2.4 WSW 20 28 11 15 1021.0 1021.0 0.0
10/12:30am 12.3 7.7 6.4 67 2.8 WSW 20 28 11 15 1021.2 1021.2 0.0
10/12:00am 12.4 7.1 6.7 68 2.7 WSW 24 32 13 17 1021.3 1021.3 0.0
 
Date/Time
EDT
Temp
°C
App
Temp
°C
Dew
Point
°C
Rel
Hum
%
Delta-T
°C
Wind Press
QNH
hPa
Press
MSL
hPa
Rain since
9am
mm
Dir  Spd
km/h
Gust
km/h
Spd
kts
Gust
kts
09/11:30pm 11.9 6.2 8.4 79 1.7 SW 28 37 15 20 1021.5 1021.5 0.0
09/11:00pm 12.3 6.4 7.6 73 2.3 WSW 28 37 15 20 1021.2 1021.2 0.0
09/10:30pm 12.3 6.8 7.4 72 2.4 SW 26 39 14 21 1021.0 1021.0 0.0
09/10:00pm 11.6 5.4 7.9 78 1.8 SW 30 39 16 21 1020.9 1020.9 0.0
09/09:30pm 12.4 7.7 7.7 73 2.3 WSW 22 30 12 16 1020.5 1020.5 0.0
09/09:00pm 12.2 5.6 7.9 75 2.1 WSW 32 41 17 22 1020.3 1020.3 0.0
09/08:30pm 12.5 6.3 7.8 73 2.3 SW 30 39 16 21 1019.8 1019.8 0.0
09/08:00pm 12.8 6.1 7.5 70 2.6 WSW 32 43 17 23 1019.5 1019.5 0.0
09/07:30pm 12.2 6.6 8.7 79 1.7 WSW 28 39 15 21 1019.2 1019.2 0.0
09/07:00pm 12.8 5.7 8.1 73 2.3 SW 35 46 19 25 1018.9 1018.9 0.0
09/06:46pm 12.9 6.4 8.2 73 2.3 WSW 32 50 17 27 1018.6 1018.6 0.0
09/06:30pm 13.2 6.5 7.2 67 2.9 WSW 32 43 17 23 1018.2 1018.2 0.0
09/06:00pm 13.5 6.4 7.9 69 2.8 WSW 35 48 19 26 1017.8 1017.8 0.0
09/05:30pm 12.2 6.0 9.2 82 1.5 W 32 43 17 23 1017.8 1017.8 0.0
09/05:00pm 13.5 6.9 8.6 72 2.5 SW 33 48 18 26 1017.5 1017.5 0.0
09/04:30pm 14.7 7.0 7.0 60 3.8 WSW 37 48 20 26 1017.3 1017.3 0.0
09/04:00pm 13.7 6.5 7.5 66 3.0 WSW 35 50 19 27 1017.3 1017.3 0.0
09/03:30pm 14.6 7.5 8.1 65 3.2 W 35 48 19 26 1017.3 1017.3 0.0
09/03:00pm 13.6 6.8 7.6 67 2.9 WSW 33 48 18 26 1016.9 1016.8 0.0
09/02:30pm 15.6 8.0 7.6 59 4.0 WSW 37 50 20 27 1016.8 1016.7 0.0
09/02:00pm 15.7 7.7 7.5 58 4.1 WSW 39 52 21 28 1016.5 1016.4 0.0
09/01:30pm 14.6 6.0 6.4 58 4.0 WSW 41 56 22 30 1016.2 1016.1 0.0
09/01:00pm 15.8 7.3 6.8 55 4.4 WSW 41 57 22 31 1015.8 1015.7 0.0
09/12:31pm 15.9 7.8 7.1 56 4.3 WSW 39 57 21 31 1015.6 1015.5 0.0
09/12:30pm 16.1 7.6 7.1 55 4.5 WSW 41 57 22 31 1015.6 1015.5 0.0
09/12:02pm 15.5 7.9 7.5 59 4.0 WSW 37 56 20 30 1015.2 1015.1 0.0
09/12:00pm 15.2 7.0 6.7 57 4.1 WSW 39 56 21 30 1015.2 1015.1 0.0
09/11:54am 14.8 7.0 6.6 58 4.0 WSW 37 56 20 30 1015.2 1015.1 0.0
09/11:30am 15.2 8.2 6.7 57 4.1 WSW 33 52 18 28 1014.9 1014.8 0.0
09/11:00am 14.4 5.8 6.3 58 3.9 WSW 41 57 22 31 1014.5 1014.4 0.0
09/10:30am 13.4 4.7 7.8 69 2.8 WSW 43 69 23 37 1014.1 1014.0 0.0
09/10:14am 14.7 6.6 7.0 60 3.8 WSW 39 57 21 31 1013.7 1013.6 0.0
09/10:00am 14.2 6.2 5.8 57 4.0 SW 37 56 20 30 1013.5 1013.4 0.0
09/09:30am 12.0 2.9 6.7 70 2.5 SW 44 61 24 33 1013.2 1013.1 0.0
09/09:25am 13.4 5.5 6.3 62 3.4 WSW 37 56 20 30 1013.0 1012.9 0.0
09/09:00am 12.7 5.2 6.1 64 3.1 WSW 35 52 19 28 1012.7 1012.6 8.6
09/08:30am 13.0 4.6 5.7 61 3.4 SW 39 63 21 34 1012.0 1011.9 8.6
09/08:28am 12.9 4.9 5.6 61 3.4 SW 37 57 20 31 1011.8 1011.7 8.6
09/08:00am 12.7 4.3 5.4 61 3.4 SW 39 54 21 29 1011.0 1010.9 8.6
09/07:36am 12.2 3.8 5.4 63 3.2 SW 39 57 21 31 1010.5 1010.4 8.6
09/07:30am 12.4 3.6 5.6 63 3.2 SW 41 57 22 31 1010.5 1010.4 8.6
09/07:00am 12.1 3.0 5.9 66 2.9 SW 43 65 23 35 1009.9 1009.8 8.6
09/06:30am 10.8 2.0 5.6 70 2.4 SW 41 65 22 35 1009.4 1009.3 8.6
09/06:00am 10.6 2.9 7.3 80 1.6 WSW 37 57 20 31 1008.6 1008.5 8.6
09/05:35am 10.9 2.5 5.7 70 2.4 WSW 39 57 21 31 1008.0 1007.9 8.4
09/05:30am 10.8 1.3 5.1 68 2.6 WSW 44 59 24 32 1007.9 1007.8 8.4
09/05:00am 11.5 3.2 6.2 70 2.5 WSW 39 57 21 31 1007.5 1007.4 8.4
09/04:57am 11.6 3.3 5.9 68 2.7 WSW 39 57 21 31 1007.4 1007.3 8.4
09/04:30am 11.7 2.8 5.1 64 3.0 WSW 41 56 22 30 1006.8 1006.7 8.4
09/04:21am 11.3 2.7 4.7 64 3.0 WSW 39 57 21 31 1006.7 1006.6 8.4
09/04:00am 11.5 1.7 5.2 65 2.9 WSW 46 63 25 34 1006.5 1006.4 8.4
09/03:30am 12.1 3.0 6.8 70 2.5 WSW 44 67 24 36 1006.1 1006.0 8.4
09/03:26am 11.9 3.6 6.0 67 2.8 WSW 39 59 21 32 1006.0 1005.9 8.4
09/03:00am 11.1 3.4 7.2 77 1.9 WSW 37 54 20 29 1005.9 1005.8 8.4
09/02:32am 11.9 2.9 7.2 73 2.3 WSW 44 63 24 34 1005.6 1005.5 8.4
09/02:30am 12.0 2.6 7.1 72 2.4 WSW 46 63 25 34 1005.5 1005.4 8.4
09/02:23am 12.1 3.0 6.8 70 2.5 WSW 44 63 24 34 1005.4 1005.3 8.4
09/02:00am 12.3 3.2 6.8 69 2.6 WSW 44 57 24 31 1005.3 1005.2 8.4
09/01:37am 12.1 3.7 7.2 72 2.4 WSW 41 59 22 32 1005.1 1005.0 8.4
09/01:30am 12.3 3.4 7.0 70 2.5 WSW 43 56 23 30 1005.0 1004.9 8.4
09/01:12am 12.3 4.8 7.8 74 2.2 WSW 37 56 20 30 1004.9 1004.8 8.4
09/01:00am 12.3 4.7 7.4 72 2.4 WSW 37 50 20 27 1004.9 1004.8 8.4
09/12:30am 12.8 4.8 7.3 69 2.7 WSW 39 57 21 31 1004.8 1004.7 8.4
09/12:20am 12.7 5.5 7.6 71 2.5 WSW 35 54 19 29 1004.7 1004.6 8.4
09/12:00am 12.7 4.4 7.8 72 2.4 W 41 56 22 30 1004.5 1004.4 8.4
 
Date/Time
EDT
Temp
°C
App
Temp
°C
Dew
Point
°C
Rel
Hum
%
Delta-T
°C
Wind Press
QNH
hPa
Press
MSL
hPa
Rain since
9am
mm
Dir  Spd
km/h
Gust
km/h
Spd
kts
Gust
kts
08/11:31pm 12.9 5.7 7.8 71 2.5 WSW 35 54 19 29 1004.4 1004.3 8.4
08/11:30pm 13.0 5.4 7.7 70 2.6 WSW 37 56 20 30 1004.4 1004.3 8.4
08/11:19pm 13.1 5.7 8.4 73 2.3 WSW 37 56 20 30 1004.2 1004.1 8.4
08/11:00pm 13.4 5.3 8.5 72 2.5 W 41 57 22 31 1003.7 1003.6 8.4
08/10:42pm 13.4 5.7 8.5 72 2.4 W 39 57 21 31 1003.5 1003.4 8.4
08/10:30pm 13.7 5.8 9.2 74 2.3 W 41 52 22 28 1003.5 1003.4 8.4
08/10:17pm 13.5 6.3 9.2 75 2.2 W 37 57 20 31 1003.3 1003.2 8.4
08/10:00pm 13.6 5.2 8.9 73 2.4 WSW 43 59 23 32 1002.9 1002.8 8.4
08/09:40pm 13.3 6.0 8.6 73 2.4 WSW 37 56 20 30 1002.4 1002.3 8.4
08/09:30pm 13.3 5.8 9.5 78 1.9 WSW 39 54 21 29 1002.2 1002.1 8.4
08/09:26pm 13.3 5.9 9.9 80 1.7 WSW 39 57 21 31 1002.2 1002.1 8.4
08/09:00pm 13.6 5.4 9.6 77 2.1 WSW 43 61 23 33 1001.7 1001.6 8.4
08/08:30pm 13.6 6.5 11.0 84 1.4 W 39 52 21 28 1001.4 1001.3 8.4
08/08:15pm 13.7 7.4 11.2 85 1.3 W 35 56 19 30 1001.0 1000.9 8.4
08/08:00pm 13.6 7.4 11.5 87 1.1 W 35 48 19 26 1000.7 1000.6 8.4
08/07:30pm 14.7 6.5 10.3 75 2.3 W 44 61 24 33 999.9 999.8 8.4
08/07:00pm 15.1 7.0 10.1 72 2.6 W 43 65 23 35 999.1 999.0 8.4
08/06:36pm 16.4 8.4 11.1 71 2.8 W 44 70 24 38 998.5 998.4 8.4
08/06:30pm 16.7 8.3 11.2 70 3.0 W 46 65 25 35 998.4 998.3 8.4
08/06:12pm 17.1 9.6 10.9 67 3.3 W 41 59 22 32 998.2 998.1 8.4
08/06:00pm 16.5 8.4 10.8 69 3.1 W 44 59 24 32 997.8 997.7 8.4
08/05:46pm 17.7 9.9 11.7 68 3.3 W 44 65 24 35 997.4 997.3 8.4
08/05:30pm 17.9 8.6 10.5 62 4.0 W 50 63 27 34 997.0 996.9 8.4
08/05:09pm 18.1 9.2 10.5 61 4.1 W 48 69 26 37 996.7 996.6 8.4
08/05:00pm 18.1 9.3 9.7 58 4.5 W 46 65 25 35 996.7 996.6 8.4
08/04:42pm 18.4 9.6 11.0 62 4.0 W 48 69 26 37 996.4 996.3 8.4
08/04:30pm 18.8 11.1 11.6 63 4.0 W 43 56 23 30 996.2 996.1 8.4
08/04:20pm 18.5 10.6 11.6 64 3.8 W 44 63 24 34 996.3 996.2 8.4
08/04:00pm 19.1 11.0 12.1 64 3.9 W 46 61 25 33 996.2 996.1 8.4
08/03:30pm 20.1 11.2 10.5 54 5.2 W 48 70 26 38 995.8 995.7 8.4
08/03:00pm 20.0 11.6 11.0 56 5.0 WNW 46 65 25 35 995.6 995.5 8.4
08/02:59pm 20.0 11.6 11.0 56 4.9 WNW 46 65 25 35 995.7 995.6 8.4
08/02:30pm 18.9 12.0 11.7 63 4.0 WNW 39 56 21 30 996.1 996.0 8.4
08/02:06pm 17.6 12.4 13.5 77 2.3 WNW 33 54 18 29 996.3 996.2 8.4
08/02:00pm 17.6 12.0 13.3 76 2.4 WNW 35 50 19 27 996.3 996.2 8.4
08/01:30pm 16.3 11.4 13.6 84 1.5 WNW 32 43 17 23 996.2 996.1 8.4
08/01:00pm 15.0 8.3 12.3 84 1.5 WNW 39 50 21 27 996.4 996.3 8.2
08/12:30pm 14.8 10.0 11.6 81 1.7 WNW 28 39 15 21 996.0 995.9 8.0
08/12:07pm 15.2 8.2 11.4 78 2.0 WNW 39 65 21 35 996.1 996.0 8.0
08/12:03pm 16.1 10.8 12.5 79 2.0 NW 32 65 17 35 995.8 995.7 8.0
08/12:01pm 17.8 14.1 14.9 83 1.7 NW 28 65 15 35 995.6 995.5 8.0
08/12:00pm 18.1 14.9 15.4 84 1.6 NW 26 39 14 21 995.1 995.1 8.0
08/11:30am 18.7 16.0 16.7 88 1.2 NNW 26 43 14 23 994.5 994.5 8.0
08/11:00am 17.5 14.7 15.3 87 1.3 NNW 24 37 13 20 995.1 995.1 6.6
08/10:30am 17.3 15.2 15.3 88 1.2 N 20 32 11 17 995.0 995.0 5.6
08/10:16am 17.0 15.1 15.2 89 1.0 N 19 39 10 21 995.9 995.8 4.8
08/10:00am 16.6 16.8 14.8 89 1.0 NNE 7 15 4 8 996.6 996.5 3.8
08/09:30am 16.2 15.0 14.0 87 1.2 N 13 20 7 11 997.0 996.9 2.6
08/09:00am 17.0 17.7 14.6 86 1.4 NNE 4 4 2 2 997.5 997.4 1.8
08/08:30am 17.6 17.8 14.7 83 1.7 ENE 7 9 4 5 997.5 997.4 0.8
08/08:00am 16.9 16.7 13.6 81 1.9 NE 7 11 4 6 997.7 997.6 0.4
08/07:30am 16.5 16.4 13.8 84 1.5 NE 7 13 4 7 998.4 998.3 0.4
08/07:00am 16.9 15.6 13.6 81 1.9 NE 13 20 7 11 999.0 998.9 0.4
08/06:30am 16.7 15.3 13.4 81 1.9 ENE 13 20 7 11 999.1 999.0 0.0
08/06:00am 16.9 14.7 13.2 79 2.1 E 17 26 9 14 998.5 998.4 0.0
08/05:30am 16.8 13.8 12.7 77 2.3 ENE 20 28 11 15 998.2 998.1 0.0
08/05:00am 16.6 13.8 12.6 77 2.2 ENE 19 28 10 15 998.2 998.1 0.0
08/04:30am 16.4 14.0 12.8 79 2.0 E 17 26 9 14 998.8 998.7 0.0
08/04:00am 15.8 13.4 12.5 81 1.8 E 17 28 9 15 999.7 999.6 0.0
08/03:30am 15.4 12.5 12.2 81 1.7 E 19 28 10 15 1000.6 1000.5 0.0
08/03:00am 15.5 12.5 11.9 79 2.0 E 19 32 10 17 1001.2 1001.1 0.0
08/02:30am 15.4 12.6 11.4 77 2.1 E 17 32 9 17 1002.3 1002.2 0.0
08/02:00am 15.2 12.0 11.2 77 2.1 E 19 28 10 15 1002.9 1002.8 0.0
08/01:30am 14.9 11.6 10.9 77 2.1 E 19 35 10 19 1004.0 1003.9 0.0
08/01:00am 15.3 11.4 10.7 74 2.4 ENE 22 32 12 17 1005.0 1004.9 0.0
08/12:30am 15.3 10.4 9.9 70 2.8 ENE 26 35 14 19 1005.6 1005.5 0.0
08/12:00am 15.2 10.4 10.2 72 2.6 ENE 26 39 14 21 1006.3 1006.2 0.0
 
Date/Time
EDT
Temp
°C
App
Temp
°C
Dew
Point
°C
Rel
Hum
%
Delta-T
°C
Wind Press
QNH
hPa
Press
MSL
hPa
Rain since
9am
mm
Dir  Spd
km/h
Gust
km/h
Spd
kts
Gust
kts
07/11:30pm 15.2 9.1 9.6 69 2.9 ENE 32 44 17 24 1006.9 1006.8 0.0
07/11:00pm 15.2 9.3 8.9 66 3.2 ENE 30 41 16 22 1007.9 1007.8 0.0
07/10:30pm 15.3 9.4 9.2 67 3.1 ENE 30 41 16 22 1008.5 1008.4 0.0
07/10:00pm 15.5 10.6 10.1 70 2.8 ENE 26 37 14 20 1008.9 1008.8 0.0
07/09:30pm 15.5 11.0 10.1 70 2.8 ENE 24 37 13 20 1009.4 1009.3 0.0
07/09:00pm 15.6 10.9 10.8 73 2.6 ENE 26 37 14 20 1009.4 1009.3 0.0
07/08:30pm 15.3 11.2 10.1 71 2.7 ENE 22 35 12 19 1009.8 1009.7 0.0
07/08:00pm 15.6 11.4 9.9 69 3.0 ENE 22 35 12 19 1010.0 1009.9 0.0
07/07:30pm 16.3 13.0 9.5 64 3.5 E 17 30 9 16 1010.5 1010.4 0.0
07/07:00pm 17.2 14.0 10.1 63 3.8 E 17 24 9 13 1010.7 1010.6 0.0
07/06:30pm 18.1 15.4 10.5 61 4.1 E 15 24 8 13 1010.8 1010.7 0.0
07/06:00pm 18.8 15.9 9.8 56 4.8 ENE 15 24 8 13 1011.0 1010.9 0.0
07/05:30pm 18.2 16.5 11.3 64 3.8 SSW 11 17 6 9 1011.7 1011.6 0.0
07/05:00pm 18.5 16.4 11.3 63 3.9 SSW 13 19 7 10 1012.1 1012.0 0.0
07/04:30pm 19.1 17.5 11.7 62 4.1 S 11 17 6 9 1012.4 1012.3 0.0
07/04:00pm 19.4 17.6 12.2 63 4.0 SSW 13 19 7 10 1012.6 1012.5 0.0

Other Formats:

Comma delimited format used in spreadsheet applications
http://www.bom.gov.au/fwo/IDV60801/IDV60801.94911.axf

JavaScript Object Notation format (JSON) in row-major order
http://www.bom.gov.au/fwo/IDV60801/IDV60801.94911.json